Impacts TAF Board INFO
FOR SITUATIONAL AWARENESS. NOT TO BE USED FOR FLIGHT PLANNING PURPOSES.
IDs:

KRWF - Redwood Falls Muni, MN, US

Issued at 1720 UTC 16 Jan 2018
Updated at 2305 UTC 16 Jan 2018
Potential Impact None Slight Moderate High
Time<<17/12Z 17/13Z 17/14Z 17/15Z 17/16Z 17/17Z 17/18Z 17/19Z 17/20Z 17/21Z 17/22Z 17/23Z 18/00Z>>
Type PRVL PRVL PRVL PRVL PRVL PRVL
VIS >6 >6 >6 >6 >6 >6
CIG -- -- -- -- -- --
Cover SCT SCT SCT SKC SKC SKC
FltCat VFR VFR VFR VFR VFR VFR
WX -- -- -- -- -- --
WDir 210 210 210 220 220 220
WSpd 8 8 8 12 12 12
WGst -- -- -- -- -- --

Raw TAF
KRWF 161720Z 1618/1718 31008KT P6SM SCT011
  FM170000 24005KT P6SM SCT100 SCT250
  FM170700 21008KT P6SM SCT250
  FM171500 22012KT P6SM SKC


METAR Board
Radar Display
Forecast Discussion

FOR SITUATIONAL AWARENESS. NOT TO BE USED FOR FLIGHT PLANNING PURPOSES.